sensor_id;sensor_type;location;lat;lon;timestamp;P1;durP1;ratioP1;P2;durP2;ratioP2
46613;SDS011;32338;50.430;6.806;2023-06-05T00:00:36;2.97;;;1.20;;
46613;SDS011;32338;50.430;6.806;2023-06-05T00:03:04;1.65;;;1.30;;
46613;SDS011;32338;50.430;6.806;2023-06-05T00:05:30;1.17;;;1.08;;
46613;SDS011;32338;50.430;6.806;2023-06-05T00:07:57;2.10;;;1.20;;
46613;SDS011;32338;50.430;6.806;2023-06-05T00:10:24;2.80;;;1.30;;
46613;SDS011;32338;50.430;6.806;2023-06-05T00:12:50;2.03;;;1.60;;
46613;SDS011;32338;50.430;6.806;2023-06-05T00:15:17;3.92;;;1.50;;
46613;SDS011;32338;50.430;6.806;2023-06-05T00:17:44;1.55;;;1.20;;
46613;SDS011;32338;50.430;6.806;2023-06-05T00:20:12;2.03;;;1.50;;
46613;SDS011;32338;50.430;6.806;2023-06-05T00:22:38;4.75;;;1.30;;
46613;SDS011;32338;50.430;6.806;2023-06-05T00:25:05;2.80;;;1.70;;
46613;SDS011;32338;50.430;6.806;2023-06-05T00:27:33;1.60;;;1.40;;
46613;SDS011;32338;50.430;6.806;2023-06-05T00:29:59;2.65;;;1.30;;
46613;SDS011;32338;50.430;6.806;2023-06-05T00:32:26;2.38;;;1.33;;
46613;SDS011;32338;50.430;6.806;2023-06-05T00:34:53;3.75;;;1.38;;
46613;SDS011;32338;50.430;6.806;2023-06-05T00:37:20;2.70;;;1.65;;
46613;SDS011;32338;50.430;6.806;2023-06-05T00:39:47;1.75;;;1.40;;
46613;SDS011;32338;50.430;6.806;2023-06-05T00:42:14;1.40;;;1.30;;
46613;SDS011;32338;50.430;6.806;2023-06-05T00:44:40;1.40;;;1.30;;
46613;SDS011;32338;50.430;6.806;2023-06-05T00:47:07;3.65;;;1.40;;
46613;SDS011;32338;50.430;6.806;2023-06-05T00:49:33;1.60;;;1.20;;
46613;SDS011;32338;50.430;6.806;2023-06-05T00:52:00;2.55;;;1.40;;
46613;SDS011;32338;50.430;6.806;2023-06-05T00:54:28;1.85;;;1.48;;
46613;SDS011;32338;50.430;6.806;2023-06-05T00:56:55;2.00;;;1.30;;
46613;SDS011;32338;50.430;6.806;2023-06-05T00:59:22;1.85;;;1.30;;
46613;SDS011;32338;50.430;6.806;2023-06-05T01:01:49;1.40;;;1.20;;
46613;SDS011;32338;50.430;6.806;2023-06-05T01:04:17;1.70;;;1.30;;
46613;SDS011;32338;50.430;6.806;2023-06-05T01:06:44;2.22;;;1.50;;
46613;SDS011;32338;50.430;6.806;2023-06-05T01:09:11;5.15;;;1.50;;
46613;SDS011;32338;50.430;6.806;2023-06-05T01:11:40;3.00;;;1.55;;
46613;SDS011;32338;50.430;6.806;2023-06-05T01:14:14;2.55;;;1.55;;
46613;SDS011;32338;50.430;6.806;2023-06-05T01:16:47;1.63;;;1.48;;
46613;SDS011;32338;50.430;6.806;2023-06-05T01:19:16;2.03;;;1.65;;
46613;SDS011;32338;50.430;6.806;2023-06-05T01:21:43;5.80;;;1.60;;
46613;SDS011;32338;50.430;6.806;2023-06-05T01:24:11;4.55;;;1.50;;
46613;SDS011;32338;50.430;6.806;2023-06-05T01:26:43;2.15;;;1.63;;
46613;SDS011;32338;50.430;6.806;2023-06-05T01:29:21;1.70;;;1.30;;
46613;SDS011;32338;50.430;6.806;2023-06-05T01:31:53;2.45;;;1.48;;
46613;SDS011;32338;50.430;6.806;2023-06-05T01:34:23;3.45;;;1.35;;
46613;SDS011;32338;50.430;6.806;2023-06-05T01:36:52;4.18;;;1.40;;
46613;SDS011;32338;50.430;6.806;2023-06-05T01:39:22;1.85;;;1.52;;
46613;SDS011;32338;50.430;6.806;2023-06-05T01:41:51;1.90;;;1.50;;
46613;SDS011;32338;50.430;6.806;2023-06-05T01:44:19;2.63;;;1.38;;
46613;SDS011;32338;50.430;6.806;2023-06-05T01:46:46;4.07;;;1.60;;
46613;SDS011;32338;50.430;6.806;2023-06-05T01:49:13;5.28;;;1.27;;
46613;SDS011;32338;50.430;6.806;2023-06-05T01:51:41;2.63;;;1.20;;
46613;SDS011;32338;50.430;6.806;2023-06-05T01:54:08;2.83;;;1.52;;
46613;SDS011;32338;50.430;6.806;2023-06-05T01:56:36;1.83;;;1.30;;
46613;SDS011;32338;50.430;6.806;2023-06-05T01:59:03;2.75;;;1.58;;
46613;SDS011;32338;50.430;6.806;2023-06-05T02:01:32;1.40;;;1.30;;
46613;SDS011;32338;50.430;6.806;2023-06-05T02:03:59;2.38;;;1.40;;
46613;SDS011;32338;50.430;6.806;2023-06-05T02:06:31;1.80;;;1.42;;
46613;SDS011;32338;50.430;6.806;2023-06-05T02:09:00;2.33;;;1.35;;
46613;SDS011;32338;50.430;6.806;2023-06-05T02:11:27;1.52;;;1.40;;
46613;SDS011;32338;50.430;6.806;2023-06-05T02:13:55;3.00;;;1.40;;
46613;SDS011;32338;50.430;6.806;2023-06-05T02:16:25;5.82;;;1.58;;
46613;SDS011;32338;50.430;6.806;2023-06-05T02:18:51;1.80;;;1.40;;
46613;SDS011;32338;50.430;6.806;2023-06-05T02:21:18;6.15;;;1.60;;
46613;SDS011;32338;50.430;6.806;2023-06-05T02:23:44;2.00;;;1.35;;
46613;SDS011;32338;50.430;6.806;2023-06-05T02:26:11;1.90;;;1.30;;
46613;SDS011;32338;50.430;6.806;2023-06-05T02:28:37;3.97;;;1.42;;
46613;SDS011;32338;50.430;6.806;2023-06-05T02:31:05;3.00;;;1.30;;
46613;SDS011;32338;50.430;6.806;2023-06-05T02:33:32;3.83;;;1.30;;
46613;SDS011;32338;50.430;6.806;2023-06-05T02:35:58;2.63;;;1.73;;
46613;SDS011;32338;50.430;6.806;2023-06-05T02:38:25;1.40;;;1.25;;
46613;SDS011;32338;50.430;6.806;2023-06-05T02:40:53;2.00;;;1.52;;
46613;SDS011;32338;50.430;6.806;2023-06-05T02:43:20;4.72;;;1.42;;
46613;SDS011;32338;50.430;6.806;2023-06-05T02:45:47;3.25;;;1.40;;
46613;SDS011;32338;50.430;6.806;2023-06-05T02:48:15;2.78;;;1.60;;
46613;SDS011;32338;50.430;6.806;2023-06-05T02:50:42;1.35;;;1.25;;
46613;SDS011;32338;50.430;6.806;2023-06-05T02:53:08;1.63;;;1.35;;
46613;SDS011;32338;50.430;6.806;2023-06-05T02:55:35;1.60;;;1.30;;
46613;SDS011;32338;50.430;6.806;2023-06-05T02:58:02;1.52;;;1.42;;
46613;SDS011;32338;50.430;6.806;2023-06-05T03:00:29;4.13;;;1.30;;
46613;SDS011;32338;50.430;6.806;2023-06-05T03:02:56;4.88;;;1.60;;
46613;SDS011;32338;50.430;6.806;2023-06-05T03:05:24;4.93;;;1.30;;
46613;SDS011;32338;50.430;6.806;2023-06-05T03:07:53;2.65;;;1.50;;
46613;SDS011;32338;50.430;6.806;2023-06-05T03:10:19;3.42;;;1.58;;
46613;SDS011;32338;50.430;6.806;2023-06-05T03:12:46;2.40;;;1.20;;
46613;SDS011;32338;50.430;6.806;2023-06-05T03:15:13;4.22;;;1.60;;
46613;SDS011;32338;50.430;6.806;2023-06-05T03:17:41;1.88;;;1.55;;
46613;SDS011;32338;50.430;6.806;2023-06-05T03:20:08;2.53;;;1.10;;
46613;SDS011;32338;50.430;6.806;2023-06-05T03:22:37;2.72;;;1.45;;
46613;SDS011;32338;50.430;6.806;2023-06-05T03:25:04;3.20;;;1.60;;
46613;SDS011;32338;50.430;6.806;2023-06-05T03:27:31;2.20;;;1.40;;
46613;SDS011;32338;50.430;6.806;2023-06-05T03:29:57;4.53;;;1.60;;
46613;SDS011;32338;50.430;6.806;2023-06-05T03:32:24;3.40;;;1.27;;
46613;SDS011;32338;50.430;6.806;2023-06-05T03:34:51;2.15;;;1.50;;
46613;SDS011;32338;50.430;6.806;2023-06-05T03:37:17;1.85;;;1.48;;
46613;SDS011;32338;50.430;6.806;2023-06-05T03:39:45;2.70;;;1.58;;
46613;SDS011;32338;50.430;6.806;2023-06-05T03:42:12;2.22;;;1.60;;
46613;SDS011;32338;50.430;6.806;2023-06-05T03:44:38;1.38;;;1.17;;
46613;SDS011;32338;50.430;6.806;2023-06-05T03:47:05;2.28;;;1.45;;
46613;SDS011;32338;50.430;6.806;2023-06-05T03:49:32;2.17;;;1.23;;
46613;SDS011;32338;50.430;6.806;2023-06-05T03:52:00;1.50;;;1.35;;
46613;SDS011;32338;50.430;6.806;2023-06-05T03:54:27;1.50;;;1.13;;
46613;SDS011;32338;50.430;6.806;2023-06-05T03:56:55;4.13;;;1.35;;
46613;SDS011;32338;50.430;6.806;2023-06-05T03:59:23;2.08;;;1.30;;
46613;SDS011;32338;50.430;6.806;2023-06-05T04:01:52;3.20;;;1.45;;
46613;SDS011;32338;50.430;6.806;2023-06-05T04:04:19;3.40;;;1.27;;
46613;SDS011;32338;50.430;6.806;2023-06-05T04:06:46;2.15;;;1.30;;
46613;SDS011;32338;50.430;6.806;2023-06-05T04:09:13;2.15;;;1.33;;
46613;SDS011;32338;50.430;6.806;2023-06-05T04:11:39;1.67;;;1.50;;
46613;SDS011;32338;50.430;6.806;2023-06-05T04:14:08;2.65;;;1.50;;
46613;SDS011;32338;50.430;6.806;2023-06-05T04:16:35;2.15;;;1.40;;
46613;SDS011;32338;50.430;6.806;2023-06-05T04:19:04;5.05;;;1.58;;
46613;SDS011;32338;50.430;6.806;2023-06-05T04:21:32;2.40;;;1.40;;
46613;SDS011;32338;50.430;6.806;2023-06-05T04:23:59;1.95;;;1.20;;
46613;SDS011;32338;50.430;6.806;2023-06-05T04:26:26;1.75;;;1.30;;
46613;SDS011;32338;50.430;6.806;2023-06-05T04:28:52;2.03;;;1.40;;
46613;SDS011;32338;50.430;6.806;2023-06-05T04:31:22;3.80;;;1.25;;
46613;SDS011;32338;50.430;6.806;2023-06-05T04:33:50;5.35;;;1.60;;
46613;SDS011;32338;50.430;6.806;2023-06-05T04:36:17;1.88;;;1.50;;
46613;SDS011;32338;50.430;6.806;2023-06-05T04:38:45;2.20;;;1.67;;
46613;SDS011;32338;50.430;6.806;2023-06-05T04:41:12;2.65;;;1.33;;
46613;SDS011;32338;50.430;6.806;2023-06-05T04:43:39;2.25;;;1.40;;
46613;SDS011;32338;50.430;6.806;2023-06-05T04:46:05;3.13;;;1.48;;
46613;SDS011;32338;50.430;6.806;2023-06-05T04:48:33;6.68;;;1.50;;
46613;SDS011;32338;50.430;6.806;2023-06-05T04:51:01;1.50;;;1.40;;
46613;SDS011;32338;50.430;6.806;2023-06-05T04:53:28;2.20;;;1.50;;
46613;SDS011;32338;50.430;6.806;2023-06-05T04:55:56;2.15;;;1.23;;
46613;SDS011;32338;50.430;6.806;2023-06-05T04:58:24;4.25;;;1.67;;
46613;SDS011;32338;50.430;6.806;2023-06-05T05:00:51;2.85;;;1.70;;
46613;SDS011;32338;50.430;6.806;2023-06-05T05:03:18;4.45;;;1.48;;
46613;SDS011;32338;50.430;6.806;2023-06-05T05:05:46;2.53;;;1.50;;
46613;SDS011;32338;50.430;6.806;2023-06-05T05:08:13;5.65;;;1.80;;
46613;SDS011;32338;50.430;6.806;2023-06-05T05:10:39;4.60;;;2.05;;
46613;SDS011;32338;50.430;6.806;2023-06-05T05:13:06;3.72;;;1.55;;
46613;SDS011;32338;50.430;6.806;2023-06-05T05:15:32;2.58;;;1.70;;
46613;SDS011;32338;50.430;6.806;2023-06-05T05:17:59;1.98;;;1.60;;
46613;SDS011;32338;50.430;6.806;2023-06-05T05:20:28;1.50;;;1.40;;
46613;SDS011;32338;50.430;6.806;2023-06-05T05:22:58;3.70;;;1.75;;
46613;SDS011;32338;50.430;6.806;2023-06-05T05:25:25;4.18;;;1.35;;
46613;SDS011;32338;50.430;6.806;2023-06-05T05:27:52;2.38;;;1.63;;
46613;SDS011;32338;50.430;6.806;2023-06-05T05:30:18;5.07;;;2.05;;
46613;SDS011;32338;50.430;6.806;2023-06-05T05:32:45;5.40;;;1.83;;
46613;SDS011;32338;50.430;6.806;2023-06-05T05:35:11;4.68;;;1.80;;
46613;SDS011;32338;50.430;6.806;2023-06-05T05:37:38;3.95;;;1.98;;
46613;SDS011;32338;50.430;6.806;2023-06-05T05:40:07;3.00;;;1.73;;
46613;SDS011;32338;50.430;6.806;2023-06-05T05:42:34;2.03;;;1.80;;
46613;SDS011;32338;50.430;6.806;2023-06-05T05:45:00;2.53;;;1.50;;
46613;SDS011;32338;50.430;6.806;2023-06-05T05:47:27;1.77;;;1.58;;
46613;SDS011;32338;50.430;6.806;2023-06-05T05:49:53;4.93;;;1.67;;
46613;SDS011;32338;50.430;6.806;2023-06-05T05:52:20;2.70;;;1.80;;
46613;SDS011;32338;50.430;6.806;2023-06-05T05:54:47;8.65;;;2.00;;
46613;SDS011;32338;50.430;6.806;2023-06-05T05:57:15;2.00;;;1.65;;
46613;SDS011;32338;50.430;6.806;2023-06-05T05:59:42;1.80;;;1.70;;
46613;SDS011;32338;50.430;6.806;2023-06-05T06:02:09;4.50;;;2.53;;
46613;SDS011;32338;50.430;6.806;2023-06-05T06:04:36;1.90;;;1.70;;
46613;SDS011;32338;50.430;6.806;2023-06-05T06:07:03;2.35;;;2.03;;
46613;SDS011;32338;50.430;6.806;2023-06-05T06:09:30;2.00;;;1.80;;
46613;SDS011;32338;50.430;6.806;2023-06-05T06:11:56;3.75;;;2.00;;
46613;SDS011;32338;50.430;6.806;2023-06-05T06:14:25;4.63;;;2.35;;
46613;SDS011;32338;50.430;6.806;2023-06-05T06:16:51;2.92;;;2.00;;
46613;SDS011;32338;50.430;6.806;2023-06-05T06:19:19;2.97;;;1.90;;
46613;SDS011;32338;50.430;6.806;2023-06-05T06:21:48;1.73;;;1.63;;
46613;SDS011;32338;50.430;6.806;2023-06-05T06:24:15;2.28;;;1.60;;
46613;SDS011;32338;50.430;6.806;2023-06-05T06:26:45;2.45;;;2.00;;
46613;SDS011;32338;50.430;6.806;2023-06-05T06:29:13;3.35;;;1.40;;
46613;SDS011;32338;50.430;6.806;2023-06-05T06:31:41;2.38;;;1.80;;
46613;SDS011;32338;50.430;6.806;2023-06-05T06:34:09;5.18;;;2.30;;
46613;SDS011;32338;50.430;6.806;2023-06-05T06:36:35;5.13;;;2.00;;
46613;SDS011;32338;50.430;6.806;2023-06-05T06:39:05;2.13;;;1.85;;
46613;SDS011;32338;50.430;6.806;2023-06-05T06:41:34;2.60;;;1.80;;
46613;SDS011;32338;50.430;6.806;2023-06-05T06:44:01;3.55;;;2.63;;
46613;SDS011;32338;50.430;6.806;2023-06-05T06:46:29;3.63;;;3.10;;
46613;SDS011;32338;50.430;6.806;2023-06-05T06:48:57;6.60;;;3.78;;
46613;SDS011;32338;50.430;6.806;2023-06-05T06:51:24;3.17;;;1.95;;
46613;SDS011;32338;50.430;6.806;2023-06-05T06:53:51;1.67;;;1.58;;
46613;SDS011;32338;50.430;6.806;2023-06-05T06:56:17;2.53;;;1.63;;
46613;SDS011;32338;50.430;6.806;2023-06-05T06:58:44;2.42;;;1.30;;
46613;SDS011;32338;50.430;6.806;2023-06-05T07:01:11;1.70;;;1.50;;
46613;SDS011;32338;50.430;6.806;2023-06-05T07:03:38;4.75;;;1.38;;
46613;SDS011;32338;50.430;6.806;2023-06-05T07:06:06;2.95;;;1.20;;
46613;SDS011;32338;50.430;6.806;2023-06-05T07:08:35;1.95;;;1.10;;
46613;SDS011;32338;50.430;6.806;2023-06-05T07:11:01;1.48;;;1.20;;
46613;SDS011;32338;50.430;6.806;2023-06-05T07:13:28;1.60;;;1.40;;
46613;SDS011;32338;50.430;6.806;2023-06-05T07:15:55;1.70;;;1.23;;
46613;SDS011;32338;50.430;6.806;2023-06-05T07:18:21;1.70;;;1.30;;
46613;SDS011;32338;50.430;6.806;2023-06-05T07:20:48;1.60;;;1.00;;
46613;SDS011;32338;50.430;6.806;2023-06-05T07:23:16;2.30;;;1.20;;
46613;SDS011;32338;50.430;6.806;2023-06-05T07:25:43;1.90;;;1.25;;
46613;SDS011;32338;50.430;6.806;2023-06-05T07:28:10;2.10;;;1.13;;
46613;SDS011;32338;50.430;6.806;2023-06-05T07:30:38;1.92;;;1.10;;
46613;SDS011;32338;50.430;6.806;2023-06-05T07:33:08;3.60;;;0.90;;
46613;SDS011;32338;50.430;6.806;2023-06-05T07:35:35;7.38;;;1.00;;
46613;SDS011;32338;50.430;6.806;2023-06-05T07:38:02;1.55;;;0.90;;
46613;SDS011;32338;50.430;6.806;2023-06-05T07:40:30;2.85;;;1.08;;
46613;SDS011;32338;50.430;6.806;2023-06-05T07:42:57;1.27;;;1.02;;
46613;SDS011;32338;50.430;6.806;2023-06-05T07:45:24;1.27;;;0.80;;
46613;SDS011;32338;50.430;6.806;2023-06-05T07:47:51;4.50;;;0.85;;
46613;SDS011;32338;50.430;6.806;2023-06-05T07:50:20;3.08;;;1.10;;
46613;SDS011;32338;50.430;6.806;2023-06-05T07:52:47;1.70;;;1.00;;
46613;SDS011;32338;50.430;6.806;2023-06-05T07:55:14;1.98;;;0.90;;
46613;SDS011;32338;50.430;6.806;2023-06-05T07:57:42;1.80;;;1.00;;
46613;SDS011;32338;50.430;6.806;2023-06-05T08:00:09;11.25;;;1.40;;
46613;SDS011;32338;50.430;6.806;2023-06-05T08:02:36;15.18;;;1.33;;
46613;SDS011;32338;50.430;6.806;2023-06-05T08:05:04;2.85;;;1.10;;
46613;SDS011;32338;50.430;6.806;2023-06-05T08:07:32;2.05;;;1.20;;
46613;SDS011;32338;50.430;6.806;2023-06-05T08:09:59;2.97;;;1.13;;
46613;SDS011;32338;50.430;6.806;2023-06-05T08:12:25;3.10;;;0.90;;
46613;SDS011;32338;50.430;6.806;2023-06-05T08:14:53;2.75;;;1.25;;
46613;SDS011;32338;50.430;6.806;2023-06-05T08:17:20;2.45;;;1.10;;
46613;SDS011;32338;50.430;6.806;2023-06-05T08:19:48;1.38;;;1.00;;
46613;SDS011;32338;50.430;6.806;2023-06-05T08:22:15;2.75;;;1.10;;
46613;SDS011;32338;50.430;6.806;2023-06-05T08:24:42;2.25;;;1.05;;
46613;SDS011;32338;50.430;6.806;2023-06-05T08:27:08;4.40;;;1.00;;
46613;SDS011;32338;50.430;6.806;2023-06-05T08:29:35;3.92;;;1.10;;
46613;SDS011;32338;50.430;6.806;2023-06-05T08:32:04;1.27;;;1.00;;
46613;SDS011;32338;50.430;6.806;2023-06-05T08:34:31;2.88;;;1.00;;
46613;SDS011;32338;50.430;6.806;2023-06-05T08:36:58;2.53;;;0.95;;
46613;SDS011;32338;50.430;6.806;2023-06-05T08:39:24;5.32;;;1.10;;
46613;SDS011;32338;50.430;6.806;2023-06-05T08:41:54;2.35;;;1.13;;
46613;SDS011;32338;50.430;6.806;2023-06-05T08:44:25;3.13;;;1.10;;
46613;SDS011;32338;50.430;6.806;2023-06-05T08:46:52;6.00;;;1.27;;
46613;SDS011;32338;50.430;6.806;2023-06-05T08:49:27;1.00;;;0.90;;
46613;SDS011;32338;50.430;6.806;2023-06-05T08:51:57;1.98;;;0.90;;
46613;SDS011;32338;50.430;6.806;2023-06-05T08:54:28;1.25;;;0.85;;
46613;SDS011;32338;50.430;6.806;2023-06-05T08:56:59;1.50;;;1.10;;
46613;SDS011;32338;50.430;6.806;2023-06-05T08:59:27;1.80;;;1.00;;
46613;SDS011;32338;50.430;6.806;2023-06-05T09:01:55;4.80;;;1.00;;
46613;SDS011;32338;50.430;6.806;2023-06-05T09:04:22;2.97;;;1.13;;
46613;SDS011;32338;50.430;6.806;2023-06-05T09:06:52;1.98;;;0.80;;
46613;SDS011;32338;50.430;6.806;2023-06-05T09:09:19;3.10;;;0.98;;
46613;SDS011;32338;50.430;6.806;2023-06-05T09:11:45;1.40;;;1.08;;
46613;SDS011;32338;50.430;6.806;2023-06-05T09:14:12;3.78;;;1.13;;
46613;SDS011;32338;50.430;6.806;2023-06-05T09:16:40;1.98;;;0.90;;
46613;SDS011;32338;50.430;6.806;2023-06-05T09:19:09;1.08;;;0.80;;
46613;SDS011;32338;50.430;6.806;2023-06-05T09:21:36;2.80;;;1.25;;
46613;SDS011;32338;50.430;6.806;2023-06-05T09:24:14;1.95;;;0.98;;
46613;SDS011;32338;50.430;6.806;2023-06-05T09:26:54;2.30;;;0.95;;
46613;SDS011;32338;50.430;6.806;2023-06-05T09:29:25;0.90;;;0.90;;
46613;SDS011;32338;50.430;6.806;2023-06-05T09:31:56;1.90;;;0.93;;
46613;SDS011;32338;50.430;6.806;2023-06-05T09:34:24;1.60;;;1.05;;
46613;SDS011;32338;50.430;6.806;2023-06-05T09:36:56;1.88;;;0.98;;
46613;SDS011;32338;50.430;6.806;2023-06-05T09:39:28;1.42;;;1.00;;
46613;SDS011;32338;50.430;6.806;2023-06-05T09:41:57;4.03;;;1.00;;
46613;SDS011;32338;50.430;6.806;2023-06-05T09:44:28;4.45;;;1.00;;
46613;SDS011;32338;50.430;6.806;2023-06-05T09:46:57;2.33;;;1.27;;
46613;SDS011;32338;50.430;6.806;2023-06-05T09:49:26;2.92;;;1.38;;
46613;SDS011;32338;50.430;6.806;2023-06-05T09:51:55;2.58;;;0.95;;
46613;SDS011;32338;50.430;6.806;2023-06-05T09:54:24;2.67;;;1.15;;
46613;SDS011;32338;50.430;6.806;2023-06-05T09:56:56;4.45;;;1.20;;
46613;SDS011;32338;50.430;6.806;2023-06-05T09:59:23;1.17;;;0.98;;
46613;SDS011;32338;50.430;6.806;2023-06-05T10:01:55;5.03;;;1.05;;
46613;SDS011;32338;50.430;6.806;2023-06-05T10:04:23;2.85;;;1.05;;
46613;SDS011;32338;50.430;6.806;2023-06-05T10:06:54;3.67;;;1.17;;
46613;SDS011;32338;50.430;6.806;2023-06-05T10:09:23;1.30;;;1.02;;
46613;SDS011;32338;50.430;6.806;2023-06-05T10:11:52;3.88;;;1.20;;
46613;SDS011;32338;50.430;6.806;2023-06-05T10:14:19;1.50;;;0.90;;
46613;SDS011;32338;50.430;6.806;2023-06-05T10:16:48;1.90;;;1.10;;
46613;SDS011;32338;50.430;6.806;2023-06-05T10:19:17;1.80;;;1.10;;
46613;SDS011;32338;50.430;6.806;2023-06-05T10:21:46;1.10;;;1.00;;
46613;SDS011;32338;50.430;6.806;2023-06-05T10:24:14;1.60;;;1.00;;
46613;SDS011;32338;50.430;6.806;2023-06-05T10:29:52;4.72;;;1.40;;
46613;SDS011;32338;50.430;6.806;2023-06-05T10:32:35;16.40;;;1.63;;
46613;SDS011;32338;50.430;6.806;2023-06-05T10:35:11;5.38;;;1.27;;
46613;SDS011;32338;50.430;6.806;2023-06-05T10:37:56;3.25;;;1.10;;
46613;SDS011;32338;50.430;6.806;2023-06-05T10:40:34;3.47;;;1.33;;
46613;SDS011;32338;50.430;6.806;2023-06-05T10:45:51;4.72;;;1.10;;
46613;SDS011;32338;50.430;6.806;2023-06-05T10:48:19;3.20;;;1.08;;
46613;SDS011;32338;50.430;6.806;2023-06-05T10:50:45;2.42;;;1.10;;
46613;SDS011;32338;50.430;6.806;2023-06-05T10:59:20;2.95;;;1.30;;
46613;SDS011;32338;50.430;6.806;2023-06-05T11:05:07;3.28;;;1.30;;
46613;SDS011;32338;50.430;6.806;2023-06-05T11:07:35;5.82;;;1.50;;
46613;SDS011;32338;50.430;6.806;2023-06-05T11:10:09;3.25;;;1.27;;
46613;SDS011;32338;50.430;6.806;2023-06-05T11:12:58;7.05;;;1.42;;
46613;SDS011;32338;50.430;6.806;2023-06-05T11:15:39;4.78;;;1.50;;
46613;SDS011;32338;50.430;6.806;2023-06-05T11:18:28;4.95;;;1.27;;
46613;SDS011;32338;50.430;6.806;2023-06-05T11:21:01;4.95;;;1.27;;
46613;SDS011;32338;50.430;6.806;2023-06-05T11:23:28;8.70;;;1.45;;
46613;SDS011;32338;50.430;6.806;2023-06-05T11:25:56;3.28;;;1.10;;
46613;SDS011;32338;50.430;6.806;2023-06-05T11:28:36;4.18;;;1.50;;
46613;SDS011;32338;50.430;6.806;2023-06-05T11:31:06;2.47;;;1.35;;
46613;SDS011;32338;50.430;6.806;2023-06-05T11:33:32;8.10;;;1.70;;
46613;SDS011;32338;50.430;6.806;2023-06-05T11:36:00;2.50;;;1.40;;
46613;SDS011;32338;50.430;6.806;2023-06-05T11:38:27;1.98;;;1.42;;
46613;SDS011;32338;50.430;6.806;2023-06-05T11:40:54;2.05;;;1.40;;
46613;SDS011;32338;50.430;6.806;2023-06-05T11:43:21;1.58;;;1.48;;
46613;SDS011;32338;50.430;6.806;2023-06-05T11:45:49;1.73;;;1.38;;
46613;SDS011;32338;50.430;6.806;2023-06-05T11:48:18;3.00;;;1.40;;
46613;SDS011;32338;50.430;6.806;2023-06-05T11:50:51;2.75;;;1.35;;
46613;SDS011;32338;50.430;6.806;2023-06-05T11:53:20;2.72;;;1.38;;
46613;SDS011;32338;50.430;6.806;2023-06-05T11:55:47;6.30;;;1.40;;
46613;SDS011;32338;50.430;6.806;2023-06-05T11:58:31;6.20;;;1.38;;
46613;SDS011;32338;50.430;6.806;2023-06-05T12:01:04;3.55;;;1.40;;
46613;SDS011;32338;50.430;6.806;2023-06-05T12:03:34;4.00;;;1.25;;
46613;SDS011;32338;50.430;6.806;2023-06-05T12:06:01;3.60;;;1.45;;
46613;SDS011;32338;50.430;6.806;2023-06-05T12:08:29;3.63;;;1.10;;
46613;SDS011;32338;50.430;6.806;2023-06-05T12:10:58;2.58;;;1.10;;
46613;SDS011;32338;50.430;6.806;2023-06-05T12:16:14;2.85;;;1.30;;
46613;SDS011;32338;50.430;6.806;2023-06-05T12:18:42;6.57;;;1.33;;
46613;SDS011;32338;50.430;6.806;2023-06-05T12:21:19;2.55;;;1.02;;
46613;SDS011;32338;50.430;6.806;2023-06-05T12:23:47;3.47;;;1.40;;
46613;SDS011;32338;50.430;6.806;2023-06-05T12:26:14;3.38;;;1.20;;
46613;SDS011;32338;50.430;6.806;2023-06-05T12:28:42;5.67;;;1.43;;
46613;SDS011;32338;50.430;6.806;2023-06-05T12:31:09;4.35;;;1.08;;
46613;SDS011;32338;50.430;6.806;2023-06-05T12:33:47;4.20;;;1.55;;
46613;SDS011;32338;50.430;6.806;2023-06-05T12:36:14;2.33;;;1.50;;
46613;SDS011;32338;50.430;6.806;2023-06-05T12:38:41;2.45;;;1.17;;
46613;SDS011;32338;50.430;6.806;2023-06-05T12:41:08;1.48;;;1.20;;
46613;SDS011;32338;50.430;6.806;2023-06-05T12:43:35;2.78;;;1.60;;
46613;SDS011;32338;50.430;6.806;2023-06-05T12:46:02;1.45;;;1.10;;
46613;SDS011;32338;50.430;6.806;2023-06-05T12:48:29;3.60;;;1.40;;
46613;SDS011;32338;50.430;6.806;2023-06-05T12:50:58;1.55;;;1.42;;
46613;SDS011;32338;50.430;6.806;2023-06-05T12:53:25;2.70;;;1.27;;
46613;SDS011;32338;50.430;6.806;2023-06-05T12:55:52;3.17;;;1.25;;
46613;SDS011;32338;50.430;6.806;2023-06-05T12:58:18;6.00;;;1.50;;
46613;SDS011;32338;50.430;6.806;2023-06-05T13:00:46;1.75;;;1.40;;
46613;SDS011;32338;50.430;6.806;2023-06-05T13:03:13;5.20;;;1.23;;
46613;SDS011;32338;50.430;6.806;2023-06-05T13:05:41;3.63;;;1.23;;
46613;SDS011;32338;50.430;6.806;2023-06-05T13:08:09;6.03;;;1.40;;
46613;SDS011;32338;50.430;6.806;2023-06-05T13:10:36;3.75;;;1.10;;
46613;SDS011;32338;50.430;6.806;2023-06-05T13:13:03;6.13;;;1.30;;
46613;SDS011;32338;50.430;6.806;2023-06-05T13:15:29;1.30;;;1.20;;
46613;SDS011;32338;50.430;6.806;2023-06-05T13:17:56;3.33;;;1.40;;
46613;SDS011;32338;50.430;6.806;2023-06-05T13:20:23;2.92;;;1.40;;
46613;SDS011;32338;50.430;6.806;2023-06-05T13:22:50;1.58;;;1.27;;
46613;SDS011;32338;50.430;6.806;2023-06-05T13:25:18;6.43;;;1.50;;
46613;SDS011;32338;50.430;6.806;2023-06-05T13:27:45;4.45;;;1.23;;
46613;SDS011;32338;50.430;6.806;2023-06-05T13:30:11;5.15;;;1.55;;
46613;SDS011;32338;50.430;6.806;2023-06-05T13:32:38;3.15;;;1.30;;
46613;SDS011;32338;50.430;6.806;2023-06-05T13:35:06;2.78;;;1.42;;
46613;SDS011;32338;50.430;6.806;2023-06-05T13:37:34;3.03;;;1.20;;
46613;SDS011;32338;50.430;6.806;2023-06-05T13:40:00;2.83;;;1.35;;
46613;SDS011;32338;50.430;6.806;2023-06-05T13:42:31;2.53;;;1.30;;
46613;SDS011;32338;50.430;6.806;2023-06-05T13:44:58;1.52;;;1.40;;
46613;SDS011;32338;50.430;6.806;2023-06-05T13:47:24;1.58;;;1.40;;
46613;SDS011;32338;50.430;6.806;2023-06-05T13:49:51;3.65;;;1.50;;
46613;SDS011;32338;50.430;6.806;2023-06-05T13:52:18;1.77;;;1.10;;
46613;SDS011;32338;50.430;6.806;2023-06-05T13:54:45;2.25;;;1.20;;
46613;SDS011;32338;50.430;6.806;2023-06-05T13:57:11;1.73;;;1.30;;
46613;SDS011;32338;50.430;6.806;2023-06-05T13:59:39;4.43;;;1.63;;
46613;SDS011;32338;50.430;6.806;2023-06-05T14:02:06;1.40;;;1.23;;
46613;SDS011;32338;50.430;6.806;2023-06-05T14:04:32;1.15;;;1.05;;
46613;SDS011;32338;50.430;6.806;2023-06-05T14:06:59;1.77;;;1.40;;
46613;SDS011;32338;50.430;6.806;2023-06-05T14:09:26;3.13;;;1.45;;
46613;SDS011;32338;50.430;6.806;2023-06-05T14:11:53;1.98;;;1.40;;
46613;SDS011;32338;50.430;6.806;2023-06-05T14:14:19;2.65;;;1.30;;
46613;SDS011;32338;50.430;6.806;2023-06-05T14:16:47;2.13;;;1.50;;
46613;SDS011;32338;50.430;6.806;2023-06-05T14:19:14;1.58;;;1.40;;
46613;SDS011;32338;50.430;6.806;2023-06-05T14:21:41;1.35;;;1.25;;
46613;SDS011;32338;50.430;6.806;2023-06-05T14:24:08;2.95;;;1.35;;
46613;SDS011;32338;50.430;6.806;2023-06-05T14:26:35;2.55;;;1.20;;
46613;SDS011;32338;50.430;6.806;2023-06-05T14:29:02;6.80;;;1.67;;
46613;SDS011;32338;50.430;6.806;2023-06-05T14:31:29;3.20;;;1.40;;
46613;SDS011;32338;50.430;6.806;2023-06-05T14:33:57;4.32;;;1.38;;
46613;SDS011;32338;50.430;6.806;2023-06-05T14:36:23;7.22;;;1.52;;
46613;SDS011;32338;50.430;6.806;2023-06-05T14:38:50;1.35;;;1.20;;
46613;SDS011;32338;50.430;6.806;2023-06-05T14:41:17;1.40;;;1.30;;
46613;SDS011;32338;50.430;6.806;2023-06-05T14:43:44;5.55;;;1.48;;
46613;SDS011;32338;50.430;6.806;2023-06-05T14:46:10;3.15;;;1.25;;
46613;SDS011;32338;50.430;6.806;2023-06-05T14:48:37;8.95;;;1.52;;
46613;SDS011;32338;50.430;6.806;2023-06-05T14:51:05;4.97;;;1.60;;
46613;SDS011;32338;50.430;6.806;2023-06-05T14:53:32;1.80;;;1.30;;
46613;SDS011;32338;50.430;6.806;2023-06-05T14:55:59;1.15;;;1.05;;
46613;SDS011;32338;50.430;6.806;2023-06-05T14:58:26;2.30;;;1.60;;
46613;SDS011;32338;50.430;6.806;2023-06-05T15:00:52;3.10;;;1.45;;
46613;SDS011;32338;50.430;6.806;2023-06-05T15:03:19;2.60;;;1.30;;
46613;SDS011;32338;50.430;6.806;2023-06-05T15:05:45;3.05;;;1.00;;
46613;SDS011;32338;50.430;6.806;2023-06-05T15:08:13;5.97;;;1.10;;
46613;SDS011;32338;50.430;6.806;2023-06-05T15:10:40;2.35;;;1.30;;